createdAt,value
2023-02-11T00:00:39.181Z,68.91
2023-02-11T00:03:05.689Z,69.52
2023-02-11T00:05:32.068Z,68.52
2023-02-11T00:07:58.362Z,69.21
2023-02-11T00:10:24.798Z,68.49
2023-02-11T00:12:51.094Z,69.28
2023-02-11T00:15:17.699Z,69.92
2023-02-11T00:17:44.079Z,69.72
2023-02-11T00:20:10.552Z,69.79
2023-02-11T00:22:36.949Z,69.98
2023-02-11T00:25:03.481Z,69.91
2023-02-11T00:27:29.918Z,69.49
2023-02-11T00:29:56.219Z,68.31
2023-02-11T00:32:22.531Z,69.46
2023-02-11T00:34:52.408Z,69.14
2023-02-11T00:37:19.140Z,69.42
2023-02-11T00:39:45.553Z,68.28
2023-02-11T00:42:14.902Z,69.67
2023-02-11T00:44:41.473Z,70.80
2023-02-11T00:47:07.936Z,70.15
2023-02-11T00:49:34.308Z,69.38
2023-02-11T00:52:00.601Z,69.70
2023-02-11T00:54:29.882Z,69.88
2023-02-11T00:56:56.384Z,69.09
2023-02-11T00:59:22.837Z,69.23
2023-02-11T01:01:49.328Z,69.48
2023-02-11T01:04:15.768Z,69.31
2023-02-11T01:06:42.061Z,69.80
2023-02-11T01:09:08.465Z,70.18
2023-02-11T01:11:34.767Z,70.63
2023-02-11T01:14:02.049Z,70.99
2023-02-11T01:16:28.486Z,71.39
2023-02-11T01:18:54.794Z,71.64
2023-02-11T01:21:21.088Z,71.79
2023-02-11T01:23:47.634Z,72.35
2023-02-11T01:26:14.356Z,71.21
2023-02-11T01:28:40.865Z,72.21
2023-02-11T01:31:07.340Z,72.81
2023-02-11T01:33:33.852Z,73.67
2023-02-11T01:36:02.653Z,74.18
2023-02-11T01:38:29.329Z,74.06
2023-02-11T01:40:58.114Z,74.41
2023-02-11T01:43:26.157Z,74.04
2023-02-11T01:45:57.898Z,74.59
2023-02-11T01:48:47.486Z,74.73
2023-02-11T01:51:22.545Z,74.22
2023-02-11T01:53:50.777Z,74.26
2023-02-11T01:56:18.886Z,74.22
2023-02-11T01:58:48.777Z,73.78
2023-02-11T02:01:21.799Z,74.01
2023-02-11T02:03:52.353Z,73.19
2023-02-11T02:06:26.341Z,72.80
2023-02-11T02:08:58.677Z,73.19
2023-02-11T02:11:25.109Z,73.42
2023-02-11T02:13:51.455Z,72.15
2023-02-11T02:16:20.974Z,72.50
2023-02-11T02:19:11.044Z,73.07
2023-02-11T02:21:59.420Z,73.09
2023-02-11T02:24:47.914Z,72.28
2023-02-11T02:30:48.173Z,73.77
2023-02-11T02:33:24.930Z,73.31
2023-02-11T02:36:14.686Z,74.32
2023-02-11T02:38:51.148Z,75.20
2023-02-11T02:41:21.128Z,74.94
2023-02-11T02:43:51.637Z,73.97
2023-02-11T02:46:23.328Z,74.30
2023-02-11T02:48:51.370Z,72.94
2023-02-11T02:51:33.296Z,72.83
2023-02-11T02:54:21.682Z,73.39
2023-02-11T02:57:00.271Z,73.91
2023-02-11T02:59:38.646Z,74.22
2023-02-11T03:02:18.720Z,74.30
2023-02-11T03:05:06.350Z,72.98
2023-02-11T03:07:58.324Z,72.63
2023-02-11T03:10:33.125Z,72.79
2023-02-11T03:13:01.105Z,73.47
2023-02-11T03:15:32.241Z,73.63
2023-02-11T03:18:01.021Z,72.83
2023-02-11T03:20:30.282Z,72.86
2023-02-11T03:23:11.153Z,73.31
2023-02-11T03:25:44.903Z,72.45
2023-02-11T03:28:22.917Z,72.80
2023-02-11T03:30:58.507Z,72.38
2023-02-11T03:33:29.133Z,72.52
2023-02-11T03:36:05.667Z,73.58
2023-02-11T03:38:38.840Z,73.24
2023-02-11T03:41:07.944Z,72.89
2023-02-11T03:43:40.588Z,71.42
2023-02-11T03:46:09.588Z,72.01
2023-02-11T03:48:43.689Z,73.44
2023-02-11T03:51:12.272Z,73.52
2023-02-11T03:53:43.052Z,74.46
2023-02-11T03:56:14.407Z,73.19
2023-02-11T03:58:40.993Z,73.19
2023-02-11T04:01:07.516Z,73.98
2023-02-11T04:03:33.947Z,73.22
2023-02-11T04:06:00.313Z,72.29
2023-02-11T04:08:26.722Z,73.07
2023-02-11T04:10:53.134Z,73.50
2023-02-11T04:13:19.513Z,73.58
2023-02-11T04:15:48.555Z,73.05
2023-02-11T04:18:15.345Z,72.12
2023-02-11T04:20:41.848Z,72.47
2023-02-11T04:23:08.438Z,72.01
2023-02-11T04:25:34.717Z,73.56
2023-02-11T04:28:01.183Z,72.73
2023-02-11T04:30:27.643Z,72.57
2023-02-11T04:32:54.005Z,73.13
2023-02-11T04:35:21.046Z,74.12
2023-02-11T04:37:47.426Z,74.66
2023-02-11T04:40:13.835Z,73.52
2023-02-11T04:42:40.525Z,72.53
2023-02-11T04:45:07.587Z,72.58
2023-02-11T04:47:34.381Z,72.47
2023-02-11T04:50:00.778Z,72.89
2023-02-11T04:52:27.139Z,74.04
2023-02-11T04:54:53.544Z,73.73
2023-02-11T04:57:19.832Z,73.10
2023-02-11T04:59:46.122Z,72.84
2023-02-11T05:02:12.526Z,73.08
2023-02-11T05:04:38.846Z,72.80
2023-02-11T05:07:05.354Z,73.43
2023-02-11T05:09:31.714Z,74.24
2023-02-11T05:11:58.246Z,73.50
2023-02-11T05:14:24.622Z,74.40
2023-02-11T05:16:51.036Z,73.90
2023-02-11T05:19:17.411Z,74.08
2023-02-11T05:21:56.659Z,73.80
2023-02-11T05:24:27.992Z,73.13
2023-02-11T05:26:54.396Z,74.22
2023-02-11T05:29:20.739Z,73.90
2023-02-11T05:31:47.130Z,72.87
2023-02-11T05:34:13.568Z,72.05
2023-02-11T05:36:40.114Z,73.51
2023-02-11T05:39:07.077Z,74.30
2023-02-11T05:41:33.378Z,74.89
2023-02-11T05:43:59.780Z,73.45
2023-02-11T05:46:26.230Z,74.46
2023-02-11T05:48:52.650Z,73.72
2023-02-11T05:51:19.038Z,73.55
2023-02-11T05:53:45.349Z,73.14
2023-02-11T05:56:11.659Z,73.14
2023-02-11T05:58:38.044Z,73.16
2023-02-11T06:01:04.575Z,74.16
2023-02-11T06:03:31.445Z,74.34
2023-02-11T06:05:57.785Z,74.46
2023-02-11T06:08:24.199Z,73.21
2023-02-11T06:10:50.811Z,73.61
2023-02-11T06:13:17.307Z,73.77
2023-02-11T06:15:43.639Z,73.15
2023-02-11T06:18:10.363Z,72.63
2023-02-11T06:20:36.709Z,74.30
2023-02-11T06:23:03.020Z,73.10
2023-02-11T06:25:29.402Z,73.33
2023-02-11T06:27:56.217Z,72.98
2023-02-11T06:30:22.649Z,73.53
2023-02-11T06:32:49.089Z,73.56
2023-02-11T06:35:15.534Z,74.33
2023-02-11T06:37:42.701Z,74.70
2023-02-11T06:40:10.545Z,74.24
2023-02-11T06:42:36.896Z,73.22
2023-02-11T06:45:03.751Z,74.25
2023-02-11T06:47:30.238Z,73.49
2023-02-11T06:49:56.594Z,73.03
2023-02-11T06:52:22.981Z,74.20
2023-02-11T06:54:49.326Z,74.54
2023-02-11T06:57:15.656Z,73.96
2023-02-11T06:59:42.057Z,74.35
2023-02-11T07:02:11.539Z,74.48
2023-02-11T07:04:37.867Z,75.38
2023-02-11T07:07:04.303Z,73.61
2023-02-11T07:09:30.877Z,74.38
2023-02-11T07:11:57.263Z,73.87
2023-02-11T07:14:24.060Z,74.26
2023-02-11T07:16:50.614Z,74.23
2023-02-11T07:19:17.252Z,75.48
2023-02-11T07:21:43.573Z,75.65
2023-02-11T07:24:11.352Z,73.98
2023-02-11T07:26:38.286Z,75.65
2023-02-11T07:29:04.963Z,75.00
2023-02-11T07:31:32.329Z,73.87
2023-02-11T07:34:01.105Z,74.98
2023-02-11T07:36:29.099Z,74.96
2023-02-11T07:38:55.931Z,75.62
2023-02-11T07:41:23.650Z,75.13
2023-02-11T07:43:50.777Z,74.71
2023-02-11T07:46:25.217Z,75.47
2023-02-11T07:48:52.051Z,74.67
2023-02-11T07:51:23.645Z,75.77
2023-02-11T07:53:50.634Z,75.75
2023-02-11T07:56:18.676Z,76.41
2023-02-11T07:58:45.825Z,74.90
2023-02-11T08:01:15.352Z,75.73
2023-02-11T08:03:42.524Z,76.13
2023-02-11T08:06:17.369Z,74.19
2023-02-11T08:08:44.119Z,75.30
2023-02-11T08:11:16.576Z,75.19
2023-02-11T08:13:43.022Z,75.51
2023-02-11T08:16:10.251Z,76.20
2023-02-11T08:18:36.772Z,75.60
2023-02-11T08:21:08.013Z,74.53
2023-02-11T08:23:38.432Z,75.87
2023-02-11T08:26:07.478Z,76.97
2023-02-11T08:28:41.490Z,77.03
2023-02-11T08:31:13.715Z,76.76
2023-02-11T08:33:40.696Z,76.68
2023-02-11T08:36:16.111Z,76.59
2023-02-11T08:38:43.530Z,75.74
2023-02-11T08:41:10.568Z,76.21
2023-02-11T08:43:37.848Z,77.36
2023-02-11T08:46:05.015Z,76.15
2023-02-11T08:48:31.358Z,76.62
2023-02-11T08:50:57.783Z,76.84
2023-02-11T08:53:24.820Z,76.23
2023-02-11T08:55:55.526Z,77.59
2023-02-11T08:58:22.722Z,76.94
2023-02-11T09:00:50.357Z,77.81
2023-02-11T09:03:17.653Z,77.12
2023-02-11T09:05:45.748Z,77.48
2023-02-11T09:08:12.748Z,76.23
2023-02-11T09:10:39.413Z,75.93
2023-02-11T09:13:06.811Z,75.86
2023-02-11T09:15:33.425Z,75.54
2023-02-11T09:17:59.741Z,76.79
2023-02-11T09:20:27.376Z,76.94
2023-02-11T09:22:57.433Z,76.60
2023-02-11T09:25:24.047Z,76.43
2023-02-11T09:27:50.613Z,75.78
2023-02-11T09:30:17.176Z,75.08
2023-02-11T09:32:43.572Z,75.98
2023-02-11T09:35:09.901Z,77.06
2023-02-11T09:37:37.409Z,77.87
2023-02-11T09:40:04.681Z,77.71
2023-02-11T09:42:45.475Z,77.44
2023-02-11T09:45:26.303Z,76.58
2023-02-11T09:48:14.421Z,76.68
2023-02-11T09:50:44.951Z,76.09
2023-02-11T09:53:17.500Z,76.21
2023-02-11T09:55:48.089Z,75.41
2023-02-11T09:58:16.937Z,76.36
2023-02-11T10:00:48.940Z,76.13
2023-02-11T10:03:38.838Z,75.77
2023-02-11T10:06:27.546Z,75.49
2023-02-11T10:09:26.464Z,76.17
2023-02-11T10:12:01.992Z,75.34
2023-02-11T10:14:49.225Z,76.24
2023-02-11T10:17:26.720Z,77.10
2023-02-11T10:20:10.717Z,75.27
2023-02-11T10:22:48.266Z,75.45
2023-02-11T10:25:23.364Z,75.73
2023-02-11T10:27:50.945Z,75.22
2023-02-11T10:30:37.064Z,74.75
2023-02-11T10:33:14.625Z,75.02
2023-02-11T10:35:40.932Z,74.57
2023-02-11T10:38:09.053Z,73.89
2023-02-11T10:40:35.377Z,74.63
2023-02-11T10:43:05.920Z,74.67
2023-02-11T10:45:36.560Z,75.28
2023-02-11T10:48:26.890Z,74.13
2023-02-11T10:51:27.341Z,74.18
2023-02-11T10:54:06.294Z,73.92
2023-02-11T10:56:35.653Z,74.01
2023-02-11T10:59:14.153Z,73.57
2023-02-11T11:01:57.339Z,73.89
2023-02-11T11:04:29.780Z,73.68
2023-02-11T11:06:57.178Z,73.76
2023-02-11T11:09:31.038Z,73.08
2023-02-11T11:11:57.376Z,73.34
2023-02-11T11:14:25.920Z,73.66
2023-02-11T11:16:53.175Z,72.15
2023-02-11T11:19:24.835Z,71.63
2023-02-11T11:21:56.284Z,71.23
2023-02-11T11:24:33.724Z,71.95
2023-02-11T11:27:02.794Z,71.76
2023-02-11T11:29:38.329Z,71.73
2023-02-11T11:32:21.897Z,73.18
2023-02-11T11:34:54.223Z,73.39
2023-02-11T11:37:27.563Z,73.04
2023-02-11T11:40:15.670Z,72.34
2023-02-11T11:42:42.774Z,73.89
2023-02-11T11:45:15.099Z,72.88
2023-02-11T11:47:52.497Z,72.38
2023-02-11T11:50:37.158Z,73.66
2023-02-11T11:53:31.221Z,73.99
2023-02-11T11:56:03.800Z,73.77
2023-02-11T11:58:31.802Z,71.88
2023-02-11T12:01:45.253Z,71.09
2023-02-11T12:04:47.122Z,71.57
2023-02-11T12:07:49.891Z,70.94
2023-02-11T12:10:35.961Z,71.44
2023-02-11T12:13:24.886Z,71.81
2023-02-11T12:16:11.931Z,72.34
2023-02-11T12:19:04.031Z,72.97
2023-02-11T12:21:54.236Z,73.00
2023-02-11T12:24:38.789Z,71.54
2023-02-11T12:27:19.913Z,73.00
2023-02-11T12:30:07.380Z,74.19
2023-02-11T12:32:52.389Z,72.04
2023-02-11T12:35:28.680Z,73.19
2023-02-11T12:38:21.353Z,73.23
2023-02-11T12:41:10.424Z,72.55
2023-02-11T12:43:42.359Z,71.73
2023-02-11T12:46:50.657Z,72.41
2023-02-11T12:49:50.252Z,72.67
2023-02-11T12:52:41.051Z,71.84
2023-02-11T12:55:18.940Z,72.03
2023-02-11T12:57:48.316Z,73.46
2023-02-11T13:00:19.738Z,72.31
2023-02-11T13:03:12.449Z,72.11
2023-02-11T13:05:51.898Z,72.25
2023-02-11T13:08:33.635Z,72.65
2023-02-11T13:11:04.413Z,74.18
2023-02-11T13:14:06.170Z,74.20
2023-02-11T13:16:41.835Z,74.46
2023-02-11T13:19:35.170Z,73.04
2023-02-11T13:22:17.000Z,73.44
2023-02-11T13:24:43.247Z,74.76
2023-02-11T13:27:32.898Z,75.30
2023-02-11T13:30:18.333Z,75.07
2023-02-11T13:32:53.713Z,75.41
2023-02-11T13:35:31.212Z,74.85
2023-02-11T13:38:00.418Z,74.62
2023-02-11T13:40:38.356Z,75.10
2023-02-11T13:43:18.785Z,74.60
2023-02-11T13:45:49.934Z,74.21
2023-02-11T13:48:35.460Z,73.85
2023-02-11T13:51:11.213Z,75.65
2023-02-11T13:53:47.518Z,74.82
2023-02-11T13:56:32.580Z,75.78
2023-02-11T13:59:04.621Z,75.84
2023-02-11T14:02:05.471Z,75.74
2023-02-11T14:04:31.928Z,75.66
2023-02-11T14:07:27.765Z,74.80
2023-02-11T14:09:54.080Z,74.77
2023-02-11T14:12:30.942Z,75.65
2023-02-11T14:15:02.278Z,76.33
2023-02-11T14:17:34.232Z,76.46
2023-02-11T14:20:04.164Z,75.94
2023-02-11T14:22:43.550Z,76.68
2023-02-11T14:25:26.495Z,76.77
2023-02-11T14:28:05.130Z,75.91
2023-02-11T14:30:45.822Z,76.52
2023-02-11T14:33:44.527Z,75.51
2023-02-11T14:36:29.408Z,76.18
2023-02-11T14:38:59.971Z,74.41
2023-02-11T14:41:29.632Z,75.30
2023-02-11T14:44:03.880Z,75.14
2023-02-11T14:46:31.966Z,75.39
2023-02-11T14:49:01.263Z,76.66
2023-02-11T14:51:38.386Z,77.40
2023-02-11T14:54:14.221Z,77.18
2023-02-11T14:56:41.149Z,76.97
2023-02-11T14:59:22.745Z,77.57
2023-02-11T15:01:51.054Z,76.37
2023-02-11T15:04:29.618Z,77.15
2023-02-11T15:06:57.721Z,75.97
2023-02-11T15:09:47.668Z,76.41
2023-02-11T15:12:20.199Z,75.80
2023-02-11T15:14:50.830Z,77.73
2023-02-11T15:17:21.982Z,76.89
2023-02-11T15:19:52.973Z,77.71
2023-02-11T15:22:22.071Z,78.80
2023-02-11T15:25:07.367Z,78.58
2023-02-11T15:27:42.132Z,78.74
2023-02-11T15:30:25.130Z,79.41
2023-02-11T15:33:00.014Z,79.30
2023-02-11T15:35:29.810Z,79.70
2023-02-11T15:37:58.383Z,78.92
2023-02-11T15:40:28.088Z,78.93
2023-02-11T15:42:59.758Z,80.36
2023-02-11T15:45:30.891Z,80.76
2023-02-11T15:48:13.067Z,80.86
2023-02-11T15:50:41.632Z,82.33
2023-02-11T15:53:22.969Z,81.46
2023-02-11T15:55:51.978Z,81.28
2023-02-11T15:58:19.777Z,81.32
2023-02-11T16:00:52.442Z,82.63
2023-02-11T16:03:22.262Z,84.11
2023-02-11T16:05:48.669Z,82.70
2023-02-11T16:08:29.070Z,82.12
2023-02-11T16:11:01.634Z,83.96
2023-02-11T16:13:28.528Z,83.13
2023-02-11T16:16:00.324Z,83.51
2023-02-11T16:18:37.686Z,84.18
2023-02-11T16:21:07.633Z,85.31
2023-02-11T16:23:39.672Z,85.96
2023-02-11T16:26:21.232Z,85.02
2023-02-11T16:28:48.056Z,85.81
2023-02-11T16:31:14.879Z,85.44
2023-02-11T16:33:41.237Z,85.44
2023-02-11T16:36:12.733Z,84.88
2023-02-11T16:38:39.437Z,85.18
2023-02-11T16:41:05.805Z,86.42
2023-02-11T16:43:32.363Z,86.28
2023-02-11T16:45:58.924Z,86.79
2023-02-11T16:48:25.284Z,85.81
2023-02-11T16:50:53.576Z,86.32
2023-02-11T16:53:23.549Z,86.76
2023-02-11T16:55:51.235Z,87.05
2023-02-11T16:58:17.966Z,86.60
2023-02-11T17:00:47.179Z,88.32
2023-02-11T17:03:21.259Z,89.25
2023-02-11T17:05:55.294Z,89.51
2023-02-11T17:08:21.857Z,88.75
2023-02-11T17:10:48.581Z,89.04
2023-02-11T17:13:15.031Z,89.12
2023-02-11T17:15:41.416Z,89.20
2023-02-11T17:18:12.339Z,89.22
2023-02-11T17:20:38.639Z,89.05
2023-02-11T17:23:04.952Z,88.52
2023-02-11T17:25:31.342Z,88.44
2023-02-11T17:27:57.666Z,87.97
2023-02-11T17:30:24.242Z,87.82
2023-02-11T17:32:50.742Z,88.50
2023-02-11T17:35:17.319Z,88.82
2023-02-11T17:37:43.739Z,88.81
2023-02-11T17:40:10.801Z,88.06
2023-02-11T17:42:37.184Z,88.44
2023-02-11T17:45:04.120Z,88.70
2023-02-11T17:47:30.503Z,88.60
2023-02-11T17:49:56.915Z,88.27
2023-02-11T17:52:23.587Z,88.18
2023-02-11T17:54:50.452Z,89.75
2023-02-11T17:57:16.862Z,87.80
2023-02-11T17:59:43.229Z,88.24
2023-02-11T18:02:11.649Z,88.57
2023-02-11T18:04:38.156Z,88.86
2023-02-11T18:07:04.760Z,90.08
2023-02-11T18:09:31.215Z,90.65
2023-02-11T18:11:57.679Z,90.32
2023-02-11T18:14:24.029Z,89.81
2023-02-11T18:16:52.243Z,89.62
2023-02-11T18:19:19.878Z,89.49
2023-02-11T18:21:46.534Z,89.53
2023-02-11T18:24:13.137Z,90.26
2023-02-11T18:26:39.839Z,90.42
2023-02-11T18:29:06.175Z,88.36
2023-02-11T18:31:32.795Z,87.70
2023-02-11T18:33:59.418Z,86.63
2023-02-11T18:36:25.858Z,87.78
2023-02-11T18:38:52.256Z,88.94
2023-02-11T18:41:18.554Z,89.80
2023-02-11T18:43:44.837Z,89.41
2023-02-11T18:46:14.164Z,87.78
2023-02-11T18:48:41.192Z,86.99
2023-02-11T18:51:09.607Z,87.44
2023-02-11T18:53:35.916Z,89.61
2023-02-11T18:56:09.133Z,87.65
2023-02-11T18:58:35.514Z,88.21
2023-02-11T19:01:02.308Z,87.16
2023-02-11T19:03:28.604Z,88.32
2023-02-11T19:05:55.123Z,88.27
2023-02-11T19:08:21.494Z,89.64
2023-02-11T19:10:47.804Z,90.55
2023-02-11T19:13:14.570Z,91.70
2023-02-11T19:15:45.687Z,89.56
2023-02-11T19:18:14.702Z,87.64
2023-02-11T19:20:43.267Z,89.07
2023-02-11T19:23:10.870Z,89.29
2023-02-11T19:25:37.791Z,89.87
2023-02-11T19:28:04.334Z,88.46
2023-02-11T19:30:30.885Z,88.44
2023-02-11T19:32:57.285Z,88.72
2023-02-11T19:35:25.152Z,88.47
2023-02-11T19:37:51.612Z,87.50
2023-02-11T19:40:18.217Z,87.64
2023-02-11T19:42:44.617Z,88.09
2023-02-11T19:45:10.998Z,88.63
2023-02-11T19:47:37.577Z,88.12
2023-02-11T19:50:05.479Z,88.78
2023-02-11T19:52:32.301Z,89.90
2023-02-11T19:55:00.231Z,89.54
2023-02-11T19:57:26.527Z,90.74
2023-02-11T19:59:52.916Z,91.14
2023-02-11T20:02:19.564Z,88.35
2023-02-11T20:04:45.962Z,89.04
2023-02-11T20:07:12.386Z,89.82
2023-02-11T20:09:38.808Z,89.41
2023-02-11T20:12:05.576Z,89.92
2023-02-11T20:14:31.977Z,90.56
2023-02-11T20:16:58.308Z,89.28
2023-02-11T20:19:24.867Z,90.21
2023-02-11T20:21:53.476Z,90.33
2023-02-11T20:24:20.386Z,90.71
2023-02-11T20:26:47.002Z,90.63
2023-02-11T20:29:14.474Z,89.91
2023-02-11T20:31:41.651Z,91.07
2023-02-11T20:34:08.256Z,89.74
2023-02-11T20:36:35.014Z,90.33
2023-02-11T20:39:03.523Z,91.21
2023-02-11T20:41:32.991Z,91.12
2023-02-11T20:44:01.513Z,91.58
2023-02-11T20:46:30.190Z,92.13
2023-02-11T20:48:57.129Z,92.57
2023-02-11T20:51:26.670Z,92.85
2023-02-11T20:53:53.540Z,92.06
2023-02-11T20:56:23.351Z,91.73
2023-02-11T20:58:50.444Z,92.08
2023-02-11T21:01:19.774Z,91.62
2023-02-11T21:03:52.885Z,91.36
2023-02-11T21:06:20.175Z,91.67
2023-02-11T21:08:46.578Z,91.75
2023-02-11T21:11:13.247Z,90.98
2023-02-11T21:13:41.498Z,92.26
2023-02-11T21:16:11.107Z,92.80
2023-02-11T21:18:37.486Z,92.69
2023-02-11T21:21:06.895Z,91.16
2023-02-11T21:23:34.233Z,91.27
2023-02-11T21:26:00.525Z,90.18
2023-02-11T21:28:27.226Z,90.32
2023-02-11T21:30:55.550Z,91.37
2023-02-11T21:33:22.743Z,92.24
2023-02-11T21:35:49.621Z,92.09
2023-02-11T21:38:16.431Z,92.45
2023-02-11T21:40:42.994Z,91.50
2023-02-11T21:43:09.291Z,91.50
2023-02-11T21:45:35.665Z,91.00
2023-02-11T21:48:02.007Z,92.30
2023-02-11T21:50:28.434Z,91.81
2023-02-11T21:52:54.775Z,92.83
2023-02-11T21:55:21.515Z,93.37
2023-02-11T21:57:47.810Z,93.08
2023-02-11T22:00:14.958Z,92.71
2023-02-11T22:02:41.262Z,93.08
2023-02-11T22:05:08.078Z,94.15
2023-02-11T22:07:37.659Z,95.00
2023-02-11T22:10:04.475Z,94.74
2023-02-11T22:12:30.907Z,94.47
2023-02-11T22:14:57.214Z,93.92
2023-02-11T22:17:23.584Z,94.26
2023-02-11T22:19:50.385Z,94.81
2023-02-11T22:22:16.793Z,93.36
2023-02-11T22:24:43.314Z,93.64
2023-02-11T22:27:09.793Z,93.59
2023-02-11T22:29:36.178Z,92.99
2023-02-11T22:32:02.633Z,92.74
2023-02-11T22:34:29.018Z,92.45
2023-02-11T22:36:55.468Z,92.48
2023-02-11T22:39:21.788Z,91.75
2023-02-11T22:41:48.711Z,91.65
2023-02-11T22:44:15.192Z,91.02
2023-02-11T22:46:41.743Z,90.81
2023-02-11T22:49:08.058Z,91.33
2023-02-11T22:51:34.788Z,92.15
2023-02-11T22:54:03.397Z,92.81
2023-02-11T22:56:31.983Z,93.26
2023-02-11T22:58:59.956Z,93.19
2023-02-11T23:01:27.353Z,92.95
2023-02-11T23:03:53.851Z,93.30
2023-02-11T23:06:20.256Z,92.97
2023-02-11T23:08:46.578Z,92.30
2023-02-11T23:11:32.151Z,93.03
2023-02-11T23:14:00.090Z,94.29
2023-02-11T23:16:29.720Z,94.44
2023-02-11T23:18:59.740Z,93.93
2023-02-11T23:21:28.958Z,92.49
2023-02-11T23:23:57.627Z,92.76
2023-02-11T23:26:26.096Z,92.66
2023-02-11T23:28:52.512Z,93.43
2023-02-11T23:31:33.242Z,93.72
2023-02-11T23:34:00.246Z,93.22
2023-02-11T23:36:27.410Z,93.53
2023-02-11T23:38:53.789Z,93.14
2023-02-11T23:41:21.158Z,93.77
2023-02-11T23:43:52.040Z,94.09
2023-02-11T23:46:19.267Z,95.14
2023-02-11T23:48:45.684Z,95.38
2023-02-11T23:51:12.213Z,95.73
2023-02-11T23:53:39.798Z,95.58
2023-02-11T23:56:08.354Z,95.65
2023-02-11T23:58:34.940Z,94.93
